sensor_id;sensor_type;location;lat;lon;timestamp;P1;durP1;ratioP1;P2;durP2;ratioP2
43435;SDS011;36399;51.444;-2.018;2023-02-28T00:00:33;15.70;;;5.60;;
43435;SDS011;36399;51.444;-2.018;2023-02-28T00:03:00;16.80;;;6.20;;
43435;SDS011;36399;51.444;-2.018;2023-02-28T00:05:27;13.50;;;5.27;;
43435;SDS011;36399;51.444;-2.018;2023-02-28T00:07:53;16.13;;;6.07;;
43435;SDS011;36399;51.444;-2.018;2023-02-28T00:10:21;14.20;;;5.67;;
43435;SDS011;36399;51.444;-2.018;2023-02-28T00:12:52;11.17;;;5.10;;
43435;SDS011;36399;51.444;-2.018;2023-02-28T00:15:20;13.47;;;5.50;;
43435;SDS011;36399;51.444;-2.018;2023-02-28T00:17:46;11.80;;;5.03;;
43435;SDS011;36399;51.444;-2.018;2023-02-28T00:20:13;14.57;;;5.53;;
43435;SDS011;36399;51.444;-2.018;2023-02-28T00:22:40;13.87;;;5.47;;
43435;SDS011;36399;51.444;-2.018;2023-02-28T00:25:08;8.63;;;4.63;;
43435;SDS011;36399;51.444;-2.018;2023-02-28T00:27:35;11.20;;;4.37;;
43435;SDS011;36399;51.444;-2.018;2023-02-28T00:30:02;22.07;;;5.10;;
43435;SDS011;36399;51.444;-2.018;2023-02-28T00:32:29;16.40;;;5.33;;
43435;SDS011;36399;51.444;-2.018;2023-02-28T00:34:55;18.77;;;6.20;;
43435;SDS011;36399;51.444;-2.018;2023-02-28T00:37:22;13.87;;;5.80;;
43435;SDS011;36399;51.444;-2.018;2023-02-28T00:39:48;13.60;;;5.87;;
43435;SDS011;36399;51.444;-2.018;2023-02-28T00:42:14;11.07;;;5.63;;
43435;SDS011;36399;51.444;-2.018;2023-02-28T00:44:40;11.60;;;5.23;;
43435;SDS011;36399;51.444;-2.018;2023-02-28T00:47:06;10.57;;;5.43;;
43435;SDS011;36399;51.444;-2.018;2023-02-28T00:49:32;15.13;;;5.80;;
43435;SDS011;36399;51.444;-2.018;2023-02-28T00:51:58;17.27;;;5.97;;
43435;SDS011;36399;51.444;-2.018;2023-02-28T00:54:24;13.83;;;5.80;;
43435;SDS011;36399;51.444;-2.018;2023-02-28T00:56:51;9.57;;;4.60;;
43435;SDS011;36399;51.444;-2.018;2023-02-28T00:59:17;14.87;;;5.37;;
43435;SDS011;36399;51.444;-2.018;2023-02-28T01:01:44;9.73;;;4.30;;
43435;SDS011;36399;51.444;-2.018;2023-02-28T01:04:11;14.50;;;5.43;;
43435;SDS011;36399;51.444;-2.018;2023-02-28T01:06:38;16.43;;;5.50;;
43435;SDS011;36399;51.444;-2.018;2023-02-28T01:09:05;12.40;;;4.80;;
43435;SDS011;36399;51.444;-2.018;2023-02-28T01:11:32;13.37;;;5.37;;
43435;SDS011;36399;51.444;-2.018;2023-02-28T01:13:58;10.63;;;5.23;;
43435;SDS011;36399;51.444;-2.018;2023-02-28T01:16:25;14.13;;;5.43;;
43435;SDS011;36399;51.444;-2.018;2023-02-28T01:18:51;16.93;;;5.77;;
43435;SDS011;36399;51.444;-2.018;2023-02-28T01:21:17;15.80;;;6.53;;
43435;SDS011;36399;51.444;-2.018;2023-02-28T01:23:45;15.23;;;6.17;;
43435;SDS011;36399;51.444;-2.018;2023-02-28T01:26:15;13.33;;;6.13;;
43435;SDS011;36399;51.444;-2.018;2023-02-28T01:28:47;15.57;;;6.37;;
43435;SDS011;36399;51.444;-2.018;2023-02-28T01:31:14;17.17;;;6.23;;
43435;SDS011;36399;51.444;-2.018;2023-02-28T01:33:40;14.53;;;6.17;;
43435;SDS011;36399;51.444;-2.018;2023-02-28T01:36:16;13.23;;;5.30;;
43435;SDS011;36399;51.444;-2.018;2023-02-28T01:38:44;16.77;;;7.07;;
43435;SDS011;36399;51.444;-2.018;2023-02-28T01:41:15;17.23;;;6.30;;
43435;SDS011;36399;51.444;-2.018;2023-02-28T01:46:17;13.27;;;6.67;;
43435;SDS011;36399;51.444;-2.018;2023-02-28T01:48:48;15.80;;;6.13;;
43435;SDS011;36399;51.444;-2.018;2023-02-28T01:51:33;14.25;;;6.10;;
43435;SDS011;36399;51.444;-2.018;2023-02-28T01:54:12;16.53;;;6.00;;
43435;SDS011;36399;51.444;-2.018;2023-02-28T01:56:44;17.80;;;7.17;;
43435;SDS011;36399;51.444;-2.018;2023-02-28T01:59:14;15.67;;;6.57;;
43435;SDS011;36399;51.444;-2.018;2023-02-28T02:01:47;14.40;;;7.13;;
43435;SDS011;36399;51.444;-2.018;2023-02-28T02:04:14;13.73;;;5.53;;
43435;SDS011;36399;51.444;-2.018;2023-02-28T02:06:42;15.43;;;6.60;;
43435;SDS011;36399;51.444;-2.018;2023-02-28T02:09:10;12.13;;;6.10;;
43435;SDS011;36399;51.444;-2.018;2023-02-28T02:11:37;18.23;;;7.80;;
43435;SDS011;36399;51.444;-2.018;2023-02-28T02:14:20;16.97;;;5.53;;
43435;SDS011;36399;51.444;-2.018;2023-02-28T02:25:38;15.77;;;6.63;;
43435;SDS011;36399;51.444;-2.018;2023-02-28T02:30:58;15.13;;;5.50;;
43435;SDS011;36399;51.444;-2.018;2023-02-28T02:39:31;14.80;;;5.93;;
43435;SDS011;36399;51.444;-2.018;2023-02-28T02:42:11;11.68;;;5.00;;
43435;SDS011;36399;51.444;-2.018;2023-02-28T02:45:10;13.50;;;5.82;;
43435;SDS011;36399;51.444;-2.018;2023-02-28T02:47:42;11.73;;;5.93;;
43435;SDS011;36399;51.444;-2.018;2023-02-28T02:52:46;15.23;;;6.73;;
43435;SDS011;36399;51.444;-2.018;2023-02-28T02:55:17;11.65;;;6.10;;
43435;SDS011;36399;51.444;-2.018;2023-02-28T02:57:47;12.73;;;6.47;;
43435;SDS011;36399;51.444;-2.018;2023-02-28T03:00:17;14.13;;;6.43;;
43435;SDS011;36399;51.444;-2.018;2023-02-28T03:02:48;17.90;;;7.37;;
43435;SDS011;36399;51.444;-2.018;2023-02-28T03:05:23;17.73;;;7.30;;
43435;SDS011;36399;51.444;-2.018;2023-02-28T03:07:52;15.23;;;6.10;;
43435;SDS011;36399;51.444;-2.018;2023-02-28T03:16:33;17.30;;;6.23;;
43435;SDS011;36399;51.444;-2.018;2023-02-28T03:24:31;14.37;;;6.63;;
43435;SDS011;36399;51.444;-2.018;2023-02-28T03:27:00;16.88;;;6.97;;
43435;SDS011;36399;51.444;-2.018;2023-02-28T03:29:33;13.60;;;7.23;;
43435;SDS011;36399;51.444;-2.018;2023-02-28T03:32:06;11.73;;;5.90;;
43435;SDS011;36399;51.444;-2.018;2023-02-28T03:34:46;16.53;;;6.97;;
43435;SDS011;36399;51.444;-2.018;2023-02-28T03:37:19;15.53;;;6.97;;
43435;SDS011;36399;51.444;-2.018;2023-02-28T03:40:01;17.77;;;6.63;;
43435;SDS011;36399;51.444;-2.018;2023-02-28T03:42:33;16.70;;;7.23;;
43435;SDS011;36399;51.444;-2.018;2023-02-28T03:45:02;10.63;;;6.00;;
43435;SDS011;36399;51.444;-2.018;2023-02-28T03:47:35;12.90;;;6.67;;
43435;SDS011;36399;51.444;-2.018;2023-02-28T03:52:48;17.20;;;6.53;;
43435;SDS011;36399;51.444;-2.018;2023-02-28T03:55:31;16.10;;;6.95;;
43435;SDS011;36399;51.444;-2.018;2023-02-28T04:00:50;14.17;;;6.40;;
43435;SDS011;36399;51.444;-2.018;2023-02-28T04:03:23;15.03;;;6.50;;
43435;SDS011;36399;51.444;-2.018;2023-02-28T04:05:53;15.80;;;6.87;;
43435;SDS011;36399;51.444;-2.018;2023-02-28T04:08:20;14.93;;;6.33;;
43435;SDS011;36399;51.444;-2.018;2023-02-28T04:10:48;17.00;;;5.97;;
43435;SDS011;36399;51.444;-2.018;2023-02-28T04:13:19;16.02;;;6.13;;
43435;SDS011;36399;51.444;-2.018;2023-02-28T04:15:45;12.03;;;5.63;;
43435;SDS011;36399;51.444;-2.018;2023-02-28T04:18:11;16.03;;;7.13;;
43435;SDS011;36399;51.444;-2.018;2023-02-28T04:20:37;16.73;;;8.30;;
43435;SDS011;36399;51.444;-2.018;2023-02-28T04:23:03;19.43;;;7.10;;
43435;SDS011;36399;51.444;-2.018;2023-02-28T04:25:29;14.17;;;6.70;;
43435;SDS011;36399;51.444;-2.018;2023-02-28T04:27:55;20.00;;;7.63;;
43435;SDS011;36399;51.444;-2.018;2023-02-28T04:30:21;14.87;;;6.90;;
43435;SDS011;36399;51.444;-2.018;2023-02-28T04:32:48;15.90;;;7.53;;
43435;SDS011;36399;51.444;-2.018;2023-02-28T04:35:14;17.87;;;7.77;;
43435;SDS011;36399;51.444;-2.018;2023-02-28T04:37:41;15.23;;;7.63;;
43435;SDS011;36399;51.444;-2.018;2023-02-28T04:40:07;17.50;;;7.37;;
43435;SDS011;36399;51.444;-2.018;2023-02-28T04:42:33;22.87;;;7.80;;
43435;SDS011;36399;51.444;-2.018;2023-02-28T04:45:02;20.97;;;7.70;;
43435;SDS011;36399;51.444;-2.018;2023-02-28T04:47:28;23.53;;;8.30;;
43435;SDS011;36399;51.444;-2.018;2023-02-28T04:49:54;14.57;;;7.30;;
43435;SDS011;36399;51.444;-2.018;2023-02-28T04:52:20;16.50;;;7.20;;
43435;SDS011;36399;51.444;-2.018;2023-02-28T04:54:46;19.13;;;8.17;;
43435;SDS011;36399;51.444;-2.018;2023-02-28T04:57:12;16.07;;;7.37;;
43435;SDS011;36399;51.444;-2.018;2023-02-28T04:59:38;20.17;;;7.53;;
43435;SDS011;36399;51.444;-2.018;2023-02-28T05:02:04;18.00;;;7.87;;
43435;SDS011;36399;51.444;-2.018;2023-02-28T05:04:34;17.00;;;7.73;;
43435;SDS011;36399;51.444;-2.018;2023-02-28T05:07:00;14.83;;;7.03;;
43435;SDS011;36399;51.444;-2.018;2023-02-28T05:09:26;15.90;;;7.07;;
43435;SDS011;36399;51.444;-2.018;2023-02-28T05:11:54;18.37;;;7.37;;
43435;SDS011;36399;51.444;-2.018;2023-02-28T05:14:21;16.50;;;8.00;;
43435;SDS011;36399;51.444;-2.018;2023-02-28T05:16:47;20.60;;;8.27;;
43435;SDS011;36399;51.444;-2.018;2023-02-28T05:19:13;16.80;;;7.13;;
43435;SDS011;36399;51.444;-2.018;2023-02-28T05:21:39;16.17;;;7.07;;
43435;SDS011;36399;51.444;-2.018;2023-02-28T05:24:09;16.70;;;7.05;;
43435;SDS011;36399;51.444;-2.018;2023-02-28T05:26:38;18.40;;;7.82;;
43435;SDS011;36399;51.444;-2.018;2023-02-28T05:29:06;13.93;;;7.47;;
43435;SDS011;36399;51.444;-2.018;2023-02-28T05:31:32;19.70;;;8.00;;
43435;SDS011;36399;51.444;-2.018;2023-02-28T05:33:59;15.05;;;7.82;;
43435;SDS011;36399;51.444;-2.018;2023-02-28T05:36:25;19.90;;;8.47;;
43435;SDS011;36399;51.444;-2.018;2023-02-28T05:38:51;17.73;;;8.17;;
43435;SDS011;36399;51.444;-2.018;2023-02-28T05:41:18;18.47;;;8.37;;
43435;SDS011;36399;51.444;-2.018;2023-02-28T05:43:46;21.33;;;8.67;;
43435;SDS011;36399;51.444;-2.018;2023-02-28T05:46:13;20.03;;;9.43;;
43435;SDS011;36399;51.444;-2.018;2023-02-28T05:48:50;19.55;;;9.38;;
43435;SDS011;36399;51.444;-2.018;2023-02-28T05:51:16;20.80;;;9.27;;
43435;SDS011;36399;51.444;-2.018;2023-02-28T05:53:43;18.23;;;9.00;;
43435;SDS011;36399;51.444;-2.018;2023-02-28T05:56:09;24.30;;;9.77;;
43435;SDS011;36399;51.444;-2.018;2023-02-28T05:58:37;20.43;;;10.13;;
43435;SDS011;36399;51.444;-2.018;2023-02-28T06:01:24;25.25;;;10.15;;
43435;SDS011;36399;51.444;-2.018;2023-02-28T06:03:51;22.13;;;10.57;;
43435;SDS011;36399;51.444;-2.018;2023-02-28T06:06:20;26.47;;;11.90;;
43435;SDS011;36399;51.444;-2.018;2023-02-28T06:08:48;22.60;;;12.20;;
43435;SDS011;36399;51.444;-2.018;2023-02-28T06:11:20;23.35;;;11.57;;
43435;SDS011;36399;51.444;-2.018;2023-02-28T06:13:46;23.27;;;10.90;;
43435;SDS011;36399;51.444;-2.018;2023-02-28T06:16:12;24.57;;;11.07;;
43435;SDS011;36399;51.444;-2.018;2023-02-28T06:18:39;25.10;;;10.77;;
43435;SDS011;36399;51.444;-2.018;2023-02-28T06:21:05;20.03;;;11.23;;
43435;SDS011;36399;51.444;-2.018;2023-02-28T06:23:34;25.83;;;11.40;;
43435;SDS011;36399;51.444;-2.018;2023-02-28T06:26:00;19.83;;;10.10;;
43435;SDS011;36399;51.444;-2.018;2023-02-28T06:28:27;19.00;;;10.53;;
43435;SDS011;36399;51.444;-2.018;2023-02-28T06:30:53;19.90;;;10.43;;
43435;SDS011;36399;51.444;-2.018;2023-02-28T06:33:21;21.77;;;10.77;;
43435;SDS011;36399;51.444;-2.018;2023-02-28T06:35:49;18.90;;;10.10;;
43435;SDS011;36399;51.444;-2.018;2023-02-28T06:38:16;38.97;;;14.80;;
43435;SDS011;36399;51.444;-2.018;2023-02-28T06:40:43;30.80;;;12.53;;
43435;SDS011;36399;51.444;-2.018;2023-02-28T06:43:12;26.73;;;12.23;;
43435;SDS011;36399;51.444;-2.018;2023-02-28T06:45:42;20.87;;;11.00;;
43435;SDS011;36399;51.444;-2.018;2023-02-28T06:48:09;19.17;;;9.60;;
43435;SDS011;36399;51.444;-2.018;2023-02-28T06:50:42;22.13;;;9.77;;
43435;SDS011;36399;51.444;-2.018;2023-02-28T06:53:08;17.57;;;9.90;;
43435;SDS011;36399;51.444;-2.018;2023-02-28T06:55:37;21.30;;;10.77;;
43435;SDS011;36399;51.444;-2.018;2023-02-28T06:58:04;19.40;;;9.53;;
43435;SDS011;36399;51.444;-2.018;2023-02-28T07:00:49;23.33;;;11.13;;
43435;SDS011;36399;51.444;-2.018;2023-02-28T07:03:17;21.13;;;9.80;;
43435;SDS011;36399;51.444;-2.018;2023-02-28T07:05:46;21.75;;;10.40;;
43435;SDS011;36399;51.444;-2.018;2023-02-28T07:08:12;19.10;;;10.50;;
43435;SDS011;36399;51.444;-2.018;2023-02-28T07:10:39;16.30;;;9.77;;
43435;SDS011;36399;51.444;-2.018;2023-02-28T07:13:06;26.30;;;10.00;;
43435;SDS011;36399;51.444;-2.018;2023-02-28T07:15:34;20.17;;;10.93;;
43435;SDS011;36399;51.444;-2.018;2023-02-28T07:18:01;21.80;;;12.43;;
43435;SDS011;36399;51.444;-2.018;2023-02-28T07:20:28;20.07;;;11.47;;
43435;SDS011;36399;51.444;-2.018;2023-02-28T07:22:55;19.20;;;9.97;;
43435;SDS011;36399;51.444;-2.018;2023-02-28T07:27:50;19.53;;;9.57;;
43435;SDS011;36399;51.444;-2.018;2023-02-28T07:30:19;16.60;;;9.70;;
43435;SDS011;36399;51.444;-2.018;2023-02-28T07:32:46;20.80;;;8.90;;
43435;SDS011;36399;51.444;-2.018;2023-02-28T07:35:12;16.43;;;8.00;;
43435;SDS011;36399;51.444;-2.018;2023-02-28T07:37:43;20.13;;;8.23;;
43435;SDS011;36399;51.444;-2.018;2023-02-28T07:40:12;18.47;;;8.53;;
43435;SDS011;36399;51.444;-2.018;2023-02-28T07:42:42;13.30;;;8.10;;
43435;SDS011;36399;51.444;-2.018;2023-02-28T07:45:08;15.57;;;7.43;;
43435;SDS011;36399;51.444;-2.018;2023-02-28T07:47:37;17.67;;;8.20;;
43435;SDS011;36399;51.444;-2.018;2023-02-28T07:50:05;15.57;;;7.50;;
43435;SDS011;36399;51.444;-2.018;2023-02-28T07:52:32;14.27;;;7.07;;
43435;SDS011;36399;51.444;-2.018;2023-02-28T07:54:58;14.27;;;6.27;;
43435;SDS011;36399;51.444;-2.018;2023-02-28T07:57:25;11.27;;;4.40;;
43435;SDS011;36399;51.444;-2.018;2023-02-28T07:59:51;8.27;;;3.67;;
43435;SDS011;36399;51.444;-2.018;2023-02-28T08:02:18;9.13;;;3.37;;
43435;SDS011;36399;51.444;-2.018;2023-02-28T08:04:46;7.97;;;3.47;;
43435;SDS011;36399;51.444;-2.018;2023-02-28T08:07:14;6.47;;;2.43;;
43435;SDS011;36399;51.444;-2.018;2023-02-28T08:09:41;7.70;;;2.27;;
43435;SDS011;36399;51.444;-2.018;2023-02-28T08:12:08;8.97;;;2.63;;
43435;SDS011;36399;51.444;-2.018;2023-02-28T08:14:36;7.03;;;2.90;;
43435;SDS011;36399;51.444;-2.018;2023-02-28T08:17:02;7.73;;;2.93;;
43435;SDS011;36399;51.444;-2.018;2023-02-28T08:19:30;7.07;;;3.13;;
43435;SDS011;36399;51.444;-2.018;2023-02-28T08:21:56;7.20;;;2.90;;
43435;SDS011;36399;51.444;-2.018;2023-02-28T08:24:23;7.23;;;3.13;;
43435;SDS011;36399;51.444;-2.018;2023-02-28T08:26:49;10.20;;;3.77;;
43435;SDS011;36399;51.444;-2.018;2023-02-28T08:29:15;7.43;;;3.20;;
43435;SDS011;36399;51.444;-2.018;2023-02-28T08:31:42;7.83;;;3.00;;
43435;SDS011;36399;51.444;-2.018;2023-02-28T08:34:09;7.83;;;3.47;;
43435;SDS011;36399;51.444;-2.018;2023-02-28T08:36:38;8.43;;;3.30;;
43435;SDS011;36399;51.444;-2.018;2023-02-28T08:39:04;8.80;;;3.30;;
43435;SDS011;36399;51.444;-2.018;2023-02-28T08:41:31;11.73;;;4.27;;
43435;SDS011;36399;51.444;-2.018;2023-02-28T08:43:57;9.90;;;3.87;;
43435;SDS011;36399;51.444;-2.018;2023-02-28T08:46:23;8.37;;;3.60;;
43435;SDS011;36399;51.444;-2.018;2023-02-28T08:48:54;8.47;;;3.53;;
43435;SDS011;36399;51.444;-2.018;2023-02-28T08:51:21;8.90;;;3.20;;
43435;SDS011;36399;51.444;-2.018;2023-02-28T08:53:52;6.60;;;2.13;;
43435;SDS011;36399;51.444;-2.018;2023-02-28T08:56:19;3.27;;;1.37;;
43435;SDS011;36399;51.444;-2.018;2023-02-28T08:58:46;5.73;;;2.20;;
43435;SDS011;36399;51.444;-2.018;2023-02-28T09:01:14;7.37;;;3.00;;
43435;SDS011;36399;51.444;-2.018;2023-02-28T09:03:45;5.43;;;2.53;;
43435;SDS011;36399;51.444;-2.018;2023-02-28T09:06:13;4.67;;;2.27;;
43435;SDS011;36399;51.444;-2.018;2023-02-28T09:08:40;3.20;;;1.00;;
43435;SDS011;36399;51.444;-2.018;2023-02-28T09:11:07;4.43;;;1.53;;
43435;SDS011;36399;51.444;-2.018;2023-02-28T09:13:34;5.40;;;1.90;;
43435;SDS011;36399;51.444;-2.018;2023-02-28T09:16:01;6.30;;;2.43;;
43435;SDS011;36399;51.444;-2.018;2023-02-28T09:18:28;3.27;;;1.33;;
43435;SDS011;36399;51.444;-2.018;2023-02-28T09:20:54;5.50;;;1.50;;
43435;SDS011;36399;51.444;-2.018;2023-02-28T09:23:20;5.63;;;1.40;;
43435;SDS011;36399;51.444;-2.018;2023-02-28T09:25:53;3.93;;;1.53;;
43435;SDS011;36399;51.444;-2.018;2023-02-28T09:28:33;3.20;;;1.43;;
43435;SDS011;36399;51.444;-2.018;2023-02-28T09:30:59;4.33;;;1.80;;
43435;SDS011;36399;51.444;-2.018;2023-02-28T09:33:26;3.73;;;1.30;;
43435;SDS011;36399;51.444;-2.018;2023-02-28T09:35:57;4.10;;;1.70;;
43435;SDS011;36399;51.444;-2.018;2023-02-28T09:38:24;4.60;;;1.87;;
43435;SDS011;36399;51.444;-2.018;2023-02-28T09:40:58;4.00;;;1.50;;
43435;SDS011;36399;51.444;-2.018;2023-02-28T09:43:28;6.20;;;2.60;;
43435;SDS011;36399;51.444;-2.018;2023-02-28T09:46:00;5.17;;;2.53;;
43435;SDS011;36399;51.444;-2.018;2023-02-28T09:48:35;6.00;;;2.03;;
43435;SDS011;36399;51.444;-2.018;2023-02-28T09:54:14;6.77;;;1.97;;
43435;SDS011;36399;51.444;-2.018;2023-02-28T09:56:45;9.53;;;2.60;;
43435;SDS011;36399;51.444;-2.018;2023-02-28T10:05:01;3.92;;;1.95;;
43435;SDS011;36399;51.444;-2.018;2023-02-28T10:07:46;3.00;;;1.50;;
43435;SDS011;36399;51.444;-2.018;2023-02-28T10:13:15;4.00;;;0.90;;
43435;SDS011;36399;51.444;-2.018;2023-02-28T10:16:03;4.33;;;1.20;;
43435;SDS011;36399;51.444;-2.018;2023-02-28T10:21:36;2.67;;;1.27;;
43435;SDS011;36399;51.444;-2.018;2023-02-28T10:24:20;1.93;;;0.90;;
43435;SDS011;36399;51.444;-2.018;2023-02-28T10:26:48;2.33;;;1.00;;
43435;SDS011;36399;51.444;-2.018;2023-02-28T10:29:18;2.37;;;0.70;;
43435;SDS011;36399;51.444;-2.018;2023-02-28T10:31:44;3.73;;;1.17;;
43435;SDS011;36399;51.444;-2.018;2023-02-28T10:34:11;2.20;;;0.87;;
43435;SDS011;36399;51.444;-2.018;2023-02-28T10:36:38;2.70;;;1.30;;
43435;SDS011;36399;51.444;-2.018;2023-02-28T10:42:00;3.33;;;1.10;;
43435;SDS011;36399;51.444;-2.018;2023-02-28T10:44:26;3.27;;;1.20;;
43435;SDS011;36399;51.444;-2.018;2023-02-28T10:46:52;3.53;;;1.27;;
43435;SDS011;36399;51.444;-2.018;2023-02-28T10:49:27;4.63;;;1.30;;
43435;SDS011;36399;51.444;-2.018;2023-02-28T10:51:55;3.70;;;1.27;;
43435;SDS011;36399;51.444;-2.018;2023-02-28T10:54:28;3.03;;;2.07;;
43435;SDS011;36399;51.444;-2.018;2023-02-28T11:02:51;3.23;;;1.60;;
43435;SDS011;36399;51.444;-2.018;2023-02-28T11:05:24;3.50;;;1.53;;
43435;SDS011;36399;51.444;-2.018;2023-02-28T11:08:05;6.13;;;2.33;;
43435;SDS011;36399;51.444;-2.018;2023-02-28T11:10:38;4.27;;;2.03;;
43435;SDS011;36399;51.444;-2.018;2023-02-28T11:13:04;4.37;;;1.80;;
43435;SDS011;36399;51.444;-2.018;2023-02-28T11:15:34;5.27;;;2.00;;
43435;SDS011;36399;51.444;-2.018;2023-02-28T11:18:17;4.60;;;1.83;;
43435;SDS011;36399;51.444;-2.018;2023-02-28T11:21:04;2.90;;;1.67;;
43435;SDS011;36399;51.444;-2.018;2023-02-28T11:23:32;4.20;;;2.13;;
43435;SDS011;36399;51.444;-2.018;2023-02-28T11:26:02;7.47;;;2.87;;
43435;SDS011;36399;51.444;-2.018;2023-02-28T11:36:23;5.77;;;2.90;;
43435;SDS011;36399;51.444;-2.018;2023-02-28T11:50:39;7.60;;;3.40;;
43435;SDS011;36399;51.444;-2.018;2023-02-28T12:23:55;8.57;;;4.87;;
43435;SDS011;36399;51.444;-2.018;2023-02-28T12:26:43;8.40;;;3.92;;
43435;SDS011;36399;51.444;-2.018;2023-02-28T13:31:47;8.63;;;4.03;;
43435;SDS011;36399;51.444;-2.018;2023-02-28T13:34:35;5.90;;;2.60;;
43435;SDS011;36399;51.444;-2.018;2023-02-28T13:39:48;6.70;;;3.50;;
43435;SDS011;36399;51.444;-2.018;2023-02-28T13:47:29;5.20;;;2.53;;
43435;SDS011;36399;51.444;-2.018;2023-02-28T14:06:48;5.07;;;2.53;;
43435;SDS011;36399;51.444;-2.018;2023-02-28T14:09:27;6.07;;;2.70;;
43435;SDS011;36399;51.444;-2.018;2023-02-28T14:11:57;4.33;;;2.43;;
43435;SDS011;36399;51.444;-2.018;2023-02-28T14:17:27;6.73;;;2.40;;
43435;SDS011;36399;51.444;-2.018;2023-02-28T14:19:53;7.87;;;2.60;;
43435;SDS011;36399;51.444;-2.018;2023-02-28T14:28:03;6.20;;;2.97;;
43435;SDS011;36399;51.444;-2.018;2023-02-28T14:36:34;4.97;;;2.07;;
43435;SDS011;36399;51.444;-2.018;2023-02-28T14:39:20;5.77;;;2.87;;
43435;SDS011;36399;51.444;-2.018;2023-02-28T14:41:49;5.53;;;2.63;;
43435;SDS011;36399;51.444;-2.018;2023-02-28T14:44:19;3.77;;;2.00;;
43435;SDS011;36399;51.444;-2.018;2023-02-28T14:46:50;5.13;;;2.07;;
43435;SDS011;36399;51.444;-2.018;2023-02-28T14:49:20;5.57;;;2.67;;
43435;SDS011;36399;51.444;-2.018;2023-02-28T14:52:03;6.63;;;2.77;;
43435;SDS011;36399;51.444;-2.018;2023-02-28T14:54:35;5.20;;;3.27;;
43435;SDS011;36399;51.444;-2.018;2023-02-28T14:57:03;7.07;;;2.97;;
43435;SDS011;36399;51.444;-2.018;2023-02-28T14:59:30;4.33;;;2.17;;
43435;SDS011;36399;51.444;-2.018;2023-02-28T15:04:54;5.10;;;2.67;;
43435;SDS011;36399;51.444;-2.018;2023-02-28T15:07:25;3.80;;;2.13;;
43435;SDS011;36399;51.444;-2.018;2023-02-28T15:10:15;3.77;;;1.40;;
43435;SDS011;36399;51.444;-2.018;2023-02-28T15:12:49;1.80;;;0.97;;
43435;SDS011;36399;51.444;-2.018;2023-02-28T15:15:19;2.30;;;1.20;;
43435;SDS011;36399;51.444;-2.018;2023-02-28T15:17:48;3.03;;;1.07;;
43435;SDS011;36399;51.444;-2.018;2023-02-28T15:20:17;1.80;;;0.90;;
43435;SDS011;36399;51.444;-2.018;2023-02-28T15:22:44;2.83;;;1.23;;
43435;SDS011;36399;51.444;-2.018;2023-02-28T15:25:13;3.07;;;1.47;;
43435;SDS011;36399;51.444;-2.018;2023-02-28T15:27:45;2.53;;;1.17;;
43435;SDS011;36399;51.444;-2.018;2023-02-28T15:30:19;2.33;;;1.00;;
43435;SDS011;36399;51.444;-2.018;2023-02-28T15:35:47;4.17;;;1.53;;
43435;SDS011;36399;51.444;-2.018;2023-02-28T15:40:51;3.37;;;1.53;;
43435;SDS011;36399;51.444;-2.018;2023-02-28T15:43:29;2.93;;;1.53;;
43435;SDS011;36399;51.444;-2.018;2023-02-28T15:46:00;5.17;;;2.17;;
43435;SDS011;36399;51.444;-2.018;2023-02-28T15:48:53;3.67;;;2.03;;
43435;SDS011;36399;51.444;-2.018;2023-02-28T15:51:24;3.43;;;1.53;;
43435;SDS011;36399;51.444;-2.018;2023-02-28T15:54:07;2.37;;;1.57;;
43435;SDS011;36399;51.444;-2.018;2023-02-28T15:56:39;3.93;;;2.00;;
43435;SDS011;36399;51.444;-2.018;2023-02-28T15:59:17;2.53;;;1.33;;
43435;SDS011;36399;51.444;-2.018;2023-02-28T16:01:46;3.93;;;2.10;;
43435;SDS011;36399;51.444;-2.018;2023-02-28T16:04:14;3.07;;;1.77;;
43435;SDS011;36399;51.444;-2.018;2023-02-28T16:09:27;4.57;;;2.13;;
43435;SDS011;36399;51.444;-2.018;2023-02-28T16:11:54;3.00;;;1.47;;
43435;SDS011;36399;51.444;-2.018;2023-02-28T16:14:26;3.37;;;1.40;;
43435;SDS011;36399;51.444;-2.018;2023-02-28T16:16:56;4.03;;;1.75;;
43435;SDS011;36399;51.444;-2.018;2023-02-28T16:19:27;3.23;;;2.00;;
43435;SDS011;36399;51.444;-2.018;2023-02-28T16:21:53;3.30;;;1.67;;
43435;SDS011;36399;51.444;-2.018;2023-02-28T16:24:19;2.73;;;1.63;;
43435;SDS011;36399;51.444;-2.018;2023-02-28T16:26:48;4.57;;;2.27;;
43435;SDS011;36399;51.444;-2.018;2023-02-28T16:29:35;4.50;;;2.33;;
43435;SDS011;36399;51.444;-2.018;2023-02-28T16:32:06;6.70;;;2.67;;
43435;SDS011;36399;51.444;-2.018;2023-02-28T16:34:32;4.23;;;2.33;;
43435;SDS011;36399;51.444;-2.018;2023-02-28T16:36:58;3.50;;;2.07;;
43435;SDS011;36399;51.444;-2.018;2023-02-28T16:39:24;6.27;;;2.47;;
43435;SDS011;36399;51.444;-2.018;2023-02-28T16:41:50;5.53;;;2.73;;
43435;SDS011;36399;51.444;-2.018;2023-02-28T16:46:53;4.30;;;2.13;;
43435;SDS011;36399;51.444;-2.018;2023-02-28T16:49:19;3.83;;;2.10;;
43435;SDS011;36399;51.444;-2.018;2023-02-28T16:51:46;3.70;;;1.63;;
43435;SDS011;36399;51.444;-2.018;2023-02-28T16:54:12;4.50;;;2.17;;
43435;SDS011;36399;51.444;-2.018;2023-02-28T16:56:39;6.37;;;3.40;;
43435;SDS011;36399;51.444;-2.018;2023-02-28T16:59:09;4.80;;;2.67;;
43435;SDS011;36399;51.444;-2.018;2023-02-28T17:01:36;4.50;;;2.87;;
43435;SDS011;36399;51.444;-2.018;2023-02-28T17:04:03;4.47;;;2.53;;
43435;SDS011;36399;51.444;-2.018;2023-02-28T17:06:29;4.40;;;2.70;;
43435;SDS011;36399;51.444;-2.018;2023-02-28T17:08:56;4.43;;;2.70;;
43435;SDS011;36399;51.444;-2.018;2023-02-28T17:11:23;6.27;;;2.53;;
43435;SDS011;36399;51.444;-2.018;2023-02-28T17:13:50;4.47;;;2.10;;
43435;SDS011;36399;51.444;-2.018;2023-02-28T17:16:32;4.43;;;1.97;;
43435;SDS011;36399;51.444;-2.018;2023-02-28T17:19:02;3.47;;;1.97;;
43435;SDS011;36399;51.444;-2.018;2023-02-28T17:21:30;7.77;;;1.90;;
43435;SDS011;36399;51.444;-2.018;2023-02-28T17:23:57;6.23;;;3.20;;
43435;SDS011;36399;51.444;-2.018;2023-02-28T17:26:24;3.63;;;2.00;;
43435;SDS011;36399;51.444;-2.018;2023-02-28T17:28:51;2.63;;;1.53;;
43435;SDS011;36399;51.444;-2.018;2023-02-28T17:31:20;5.10;;;1.43;;
43435;SDS011;36399;51.444;-2.018;2023-02-28T17:33:46;4.77;;;2.00;;
43435;SDS011;36399;51.444;-2.018;2023-02-28T17:36:16;3.93;;;1.97;;
43435;SDS011;36399;51.444;-2.018;2023-02-28T17:38:47;3.57;;;1.83;;
43435;SDS011;36399;51.444;-2.018;2023-02-28T17:41:14;3.20;;;1.77;;
43435;SDS011;36399;51.444;-2.018;2023-02-28T17:43:40;4.50;;;2.37;;
43435;SDS011;36399;51.444;-2.018;2023-02-28T17:46:10;4.47;;;2.03;;
43435;SDS011;36399;51.444;-2.018;2023-02-28T17:48:45;3.60;;;2.17;;
43435;SDS011;36399;51.444;-2.018;2023-02-28T17:51:12;4.97;;;2.10;;
43435;SDS011;36399;51.444;-2.018;2023-02-28T17:53:38;3.73;;;2.00;;
43435;SDS011;36399;51.444;-2.018;2023-02-28T17:56:08;4.23;;;1.67;;
43435;SDS011;36399;51.444;-2.018;2023-02-28T17:58:37;4.73;;;2.10;;
43435;SDS011;36399;51.444;-2.018;2023-02-28T18:01:03;4.07;;;2.53;;
43435;SDS011;36399;51.444;-2.018;2023-02-28T18:03:29;4.60;;;2.33;;
43435;SDS011;36399;51.444;-2.018;2023-02-28T18:05:56;3.87;;;1.83;;
43435;SDS011;36399;51.444;-2.018;2023-02-28T18:08:22;3.60;;;2.07;;
43435;SDS011;36399;51.444;-2.018;2023-02-28T18:10:49;4.73;;;2.47;;
43435;SDS011;36399;51.444;-2.018;2023-02-28T18:13:15;4.30;;;2.10;;
43435;SDS011;36399;51.444;-2.018;2023-02-28T18:15:41;3.77;;;1.73;;
43435;SDS011;36399;51.444;-2.018;2023-02-28T18:18:07;5.63;;;2.50;;
43435;SDS011;36399;51.444;-2.018;2023-02-28T18:20:33;3.40;;;1.87;;
43435;SDS011;36399;51.444;-2.018;2023-02-28T18:23:00;7.13;;;3.50;;
43435;SDS011;36399;51.444;-2.018;2023-02-28T18:25:26;3.60;;;2.23;;
43435;SDS011;36399;51.444;-2.018;2023-02-28T18:27:52;3.83;;;2.23;;
43435;SDS011;36399;51.444;-2.018;2023-02-28T18:30:19;6.07;;;2.80;;